Time;durP1;ratioP1;P1;durP2;ratioP2;P2;SDS_P1;SDS_P2;PMS_P1;PMS_P2;Temp;Humidity;BMP_temperature;BMP_pressure;BME280_temperature;BME280_humidity;BME280_pressure;Samples;Min_cycle;Max_cycle;Signal;HPM_P1;HPM_P2
2023/12/15 00:01:05;;;;;;;;;;;8.70;99.90;;;;;;7336692;19;109433;-74
2023/12/15 00:03:33;;;;;;;;;;;8.70;99.90;;;;;;7342850;19;108736;-75
2023/12/15 00:06:02;;;;;;;;;;;8.80;99.90;;;;;;7334405;19;109339;-74
2023/12/15 00:08:29;;;;;;;;;;;8.80;99.90;;;;;;7338740;19;108706;-74
2023/12/15 00:10:57;;;;;;;;;;;8.80;99.90;;;;;;7338103;19;109714;-74
2023/12/15 00:13:24;;;;;;;;;;;8.80;99.90;;;;;;7336149;19;110213;-75
2023/12/15 00:15:51;;;;;;;;;;;8.80;99.90;;;;;;7338265;19;109145;-74
2023/12/15 00:18:26;;;;;;;;;;;8.80;99.90;;;;;;7337843;19;108655;-74
2023/12/15 00:20:53;;;;;;;;;;;8.80;99.90;;;;;;7337446;19;110656;-75
2023/12/15 00:23:20;;;;;;;;;;;8.80;99.90;;;;;;7339184;19;109051;-74
2023/12/15 00:25:48;;;;;;;;;;;8.80;99.90;;;;;;7342037;19;108935;-74
2023/12/15 00:28:15;;;;;;;;;;;8.80;99.90;;;;;;7336326;19;109264;-75
2023/12/15 00:30:42;;;;;;;;;;;8.80;99.90;;;;;;7338142;19;109206;-74
2023/12/15 00:33:09;;;;;;;;;;;8.80;99.90;;;;;;7336319;19;110488;-74
2023/12/15 00:35:36;;;;;;;;;;;8.80;99.90;;;;;;7339276;19;108935;-75
2023/12/15 00:38:04;;;;;;;;;;;8.80;99.90;;;;;;7338511;19;108787;-76
2023/12/15 00:40:31;;;;;;;;;;;8.90;99.90;;;;;;7336208;19;110588;-75
2023/12/15 00:42:58;;;;;;;;;;;8.80;99.90;;;;;;7337304;19;110998;-76
2023/12/15 00:45:26;;;;;;;;;;;8.80;99.90;;;;;;7335041;19;109614;-74
2023/12/15 00:47:53;;;;;;;;;;;8.80;99.90;;;;;;7342987;19;109092;-75
2023/12/15 00:50:20;;;;;;;;;;;8.80;99.90;;;;;;7337899;19;110507;-75
2023/12/15 00:52:47;;;;;;;;;;;8.80;99.90;;;;;;7335424;19;110195;-76
2023/12/15 00:55:15;;;;;;;;;;;8.80;99.90;;;;;;7338090;19;109373;-75
2023/12/15 00:57:42;;;;;;;;;;;8.80;99.90;;;;;;7336486;19;109389;-74
2023/12/15 01:00:09;;;;;;;;;;;8.90;99.90;;;;;;7337456;19;109846;-74
2023/12/15 01:02:36;;;;;;;;;;;8.90;99.90;;;;;;7339993;19;109323;-74
2023/12/15 01:05:04;;;;;;;;;;;8.90;99.90;;;;;;7340642;19;108494;-75
2023/12/15 01:07:31;;;;;;;;;;;8.90;99.90;;;;;;7346038;19;110053;-75
2023/12/15 01:09:58;;;;;;;;;;;8.90;99.90;;;;;;7344264;19;109213;-74
2023/12/15 01:12:25;;;;;;;;;;;8.90;99.90;;;;;;7337868;19;109241;-75
2023/12/15 01:14:52;;;;;;;;;;;8.90;99.90;;;;;;7336729;19;108894;-74
2023/12/15 01:17:20;;;;;;;;;;;8.90;99.90;;;;;;7336862;19;110196;-75
2023/12/15 01:19:47;;;;;;;;;;;8.90;99.90;;;;;;7335695;19;109143;-74
2023/12/15 01:22:14;;;;;;;;;;;8.90;99.90;;;;;;7333841;19;108574;-75
2023/12/15 01:24:41;;;;;;;;;;;8.90;99.90;;;;;;7336804;19;108888;-74
2023/12/15 01:27:08;;;;;;;;;;;8.90;99.90;;;;;;7334173;19;110430;-75
2023/12/15 01:29:35;;;;;;;;;;;8.90;99.90;;;;;;7341928;19;108692;-75
2023/12/15 01:32:03;;;;;;;;;;;8.90;99.90;;;;;;7334629;19;109843;-75
2023/12/15 01:34:30;;;;;;;;;;;8.90;99.90;;;;;;7335703;19;108711;-73
2023/12/15 01:36:57;;;;;;;;;;;9.00;99.90;;;;;;7335091;19;109459;-74
2023/12/15 01:39:25;;;;;;;;;;;8.90;99.90;;;;;;7336816;19;110242;-74
2023/12/15 01:41:52;;;;;;;;;;;8.90;99.90;;;;;;7333844;19;109074;-74
2023/12/15 01:44:19;;;;;;;;;;;9.00;99.90;;;;;;7334015;19;108899;-74
2023/12/15 01:46:46;;;;;;;;;;;9.00;99.90;;;;;;7336372;19;112644;-74
2023/12/15 01:49:14;;;;;;;;;;;9.00;99.90;;;;;;7336602;19;108695;-78
2023/12/15 01:51:42;;;;;;;;;;;9.00;99.90;;;;;;7340843;19;108804;-76
2023/12/15 01:54:10;;;;;;;;;;;9.00;99.90;;;;;;7337555;19;109231;-77
2023/12/15 01:56:37;;;;;;;;;;;9.00;99.90;;;;;;7336462;19;108781;-77
2023/12/15 01:59:04;;;;;;;;;;;9.00;99.90;;;;;;7334471;19;109582;-78
2023/12/15 02:01:31;;;;;;;;;;;9.00;99.90;;;;;;7335460;19;108669;-73
2023/12/15 02:03:58;;;;;;;;;;;9.00;99.90;;;;;;7335588;19;110212;-74
2023/12/15 02:06:25;;;;;;;;;;;9.00;99.90;;;;;;7335282;19;109522;-75
2023/12/15 02:08:53;;;;;;;;;;;9.10;99.90;;;;;;7335878;19;108540;-75
2023/12/15 02:11:20;;;;;;;;;;;9.10;99.90;;;;;;7333839;19;110079;-74
2023/12/15 02:13:47;;;;;;;;;;;9.10;99.90;;;;;;7341239;19;109269;-74
2023/12/15 02:16:14;;;;;;;;;;;9.10;99.90;;;;;;7333521;19;108478;-74
2023/12/15 02:18:41;;;;;;;;;;;9.10;99.90;;;;;;7334373;19;112993;-74
2023/12/15 02:21:09;;;;;;;;;;;9.10;99.90;;;;;;7334181;19;109562;-73
2023/12/15 02:23:37;;;;;;;;;;;9.10;99.90;;;;;;7329642;19;109646;-73
2023/12/15 02:26:04;;;;;;;;;;;9.10;99.90;;;;;;7334158;19;109634;-73
2023/12/15 02:28:31;;;;;;;;;;;9.10;99.90;;;;;;7334318;19;109108;-74
2023/12/15 02:30:58;;;;;;;;;;;9.10;99.90;;;;;;7333904;19;108637;-73
2023/12/15 02:33:25;;;;;;;;;;;9.10;99.90;;;;;;7331213;19;109284;-73
2023/12/15 02:35:53;;;;;;;;;;;9.10;99.90;;;;;;7338155;19;109022;-74
2023/12/15 02:38:20;;;;;;;;;;;9.10;99.90;;;;;;7334416;19;110305;-73
2023/12/15 02:40:47;;;;;;;;;;;9.10;99.90;;;;;;7335808;19;109823;-74
2023/12/15 02:43:15;;;;;;;;;;;9.10;99.90;;;;;;7335681;19;109084;-74
2023/12/15 02:45:42;;;;;;;;;;;9.10;99.90;;;;;;7336165;19;110218;-74
2023/12/15 02:48:09;;;;;;;;;;;9.10;99.90;;;;;;7334757;19;108353;-74
2023/12/15 02:50:37;;;;;;;;;;;9.20;99.90;;;;;;7333914;19;110556;-74
2023/12/15 02:53:04;;;;;;;;;;;9.10;99.90;;;;;;7332066;19;111036;-74
2023/12/15 02:55:31;;;;;;;;;;;9.10;99.90;;;;;;7333436;19;111871;-74
2023/12/15 02:57:58;;;;;;;;;;;9.20;99.90;;;;;;7335819;19;109114;-74
2023/12/15 03:00:25;;;;;;;;;;;9.20;99.90;;;;;;7332756;19;108750;-74
2023/12/15 03:02:53;;;;;;;;;;;9.10;99.90;;;;;;7330594;19;111352;-74
2023/12/15 03:05:20;;;;;;;;;;;9.20;99.90;;;;;;7333872;19;111729;-74
2023/12/15 03:07:47;;;;;;;;;;;9.20;99.90;;;;;;7334322;19;108511;-74
2023/12/15 03:10:14;;;;;;;;;;;9.20;99.90;;;;;;7331824;19;108593;-74
2023/12/15 03:12:41;;;;;;;;;;;9.20;99.90;;;;;;7329552;19;109415;-74
2023/12/15 03:15:08;;;;;;;;;;;9.20;99.90;;;;;;7334158;19;109250;-74
2023/12/15 03:17:35;;;;;;;;;;;9.20;99.90;;;;;;7337317;19;108532;-74
2023/12/15 03:20:06;;;;;;;;;;;9.20;99.90;;;;;;7333239;19;108900;-74
2023/12/15 03:22:33;;;;;;;;;;;9.20;99.90;;;;;;7330397;19;109589;-74
2023/12/15 03:25:00;;;;;;;;;;;9.20;99.90;;;;;;7332733;19;109215;-74
2023/12/15 03:27:27;;;;;;;;;;;9.20;99.90;;;;;;7330853;19;108464;-74
2023/12/15 03:29:54;;;;;;;;;;;9.20;99.90;;;;;;7332058;19;108702;-74
2023/12/15 03:32:21;;;;;;;;;;;9.20;99.90;;;;;;7332071;19;111267;-74
2023/12/15 03:34:49;;;;;;;;;;;9.20;99.90;;;;;;7335459;19;109097;-74
2023/12/15 03:37:16;;;;;;;;;;;9.20;99.90;;;;;;7336247;19;109209;-74
2023/12/15 03:39:43;;;;;;;;;;;9.20;99.90;;;;;;7343326;19;109086;-74
2023/12/15 03:42:11;;;;;;;;;;;9.20;99.90;;;;;;7339855;19;111090;-74
2023/12/15 03:44:39;;;;;;;;;;;9.30;99.90;;;;;;7339146;19;109153;-76
2023/12/15 03:47:07;;;;;;;;;;;9.30;99.90;;;;;;7339862;19;109934;-74
2023/12/15 03:49:35;;;;;;;;;;;9.30;99.90;;;;;;7340331;19;108906;-74
2023/12/15 03:52:03;;;;;;;;;;;9.30;99.90;;;;;;7338977;19;109466;-74
2023/12/15 03:54:30;;;;;;;;;;;9.30;99.90;;;;;;7341708;19;108916;-74
2023/12/15 03:56:57;;;;;;;;;;;9.30;99.90;;;;;;7339995;19;108580;-74
2023/12/15 03:59:25;;;;;;;;;;;9.30;99.90;;;;;;7338919;19;110091;-74
2023/12/15 04:01:52;;;;;;;;;;;9.30;99.90;;;;;;7345819;19;108880;-76
2023/12/15 04:04:19;;;;;;;;;;;9.30;99.90;;;;;;7336604;19;111189;-75
2023/12/15 04:06:47;;;;;;;;;;;9.30;99.90;;;;;;7341215;19;109921;-76
2023/12/15 04:09:14;;;;;;;;;;;9.30;99.90;;;;;;7336835;19;110483;-75
2023/12/15 04:11:41;;;;;;;;;;;9.30;99.90;;;;;;7337540;19;110218;-74
2023/12/15 04:14:09;;;;;;;;;;;9.30;99.90;;;;;;7336968;19;109012;-74
2023/12/15 04:16:39;;;;;;;;;;;9.30;99.90;;;;;;7338100;19;109159;-74
2023/12/15 04:21:44;;;;;;;;;;;9.30;99.90;;;;;;7336497;19;111091;-74
2023/12/15 04:24:11;;;;;;;;;;;9.30;99.90;;;;;;7344440;19;108651;-73
2023/12/15 04:26:38;;;;;;;;;;;9.30;99.90;;;;;;7341621;19;108662;-74
2023/12/15 04:29:05;;;;;;;;;;;9.30;99.90;;;;;;7344176;19;108902;-74
2023/12/15 04:31:32;;;;;;;;;;;9.30;99.90;;;;;;7337920;19;109166;-74
2023/12/15 04:33:59;;;;;;;;;;;9.30;99.90;;;;;;7336706;19;109281;-74
2023/12/15 04:36:27;;;;;;;;;;;9.30;99.90;;;;;;7337805;19;112771;-74
2023/12/15 04:38:54;;;;;;;;;;;9.30;99.90;;;;;;7337043;19;109610;-74
2023/12/15 04:41:23;;;;;;;;;;;9.30;99.90;;;;;;7336018;19;108410;-74
2023/12/15 04:43:50;;;;;;;;;;;9.40;99.90;;;;;;7340317;19;110023;-74
2023/12/15 04:46:24;;;;;;;;;;;9.30;99.90;;;;;;7339491;19;109979;-74
2023/12/15 04:48:51;;;;;;;;;;;9.40;99.90;;;;;;7338630;19;109072;-74
2023/12/15 04:51:19;;;;;;;;;;;9.40;99.90;;;;;;7332730;19;108518;-74
2023/12/15 04:53:46;;;;;;;;;;;9.40;99.90;;;;;;7335630;19;109304;-74
2023/12/15 04:56:13;;;;;;;;;;;9.40;99.90;;;;;;7336522;19;109943;-74
2023/12/15 04:58:41;;;;;;;;;;;9.30;99.90;;;;;;7338275;19;109480;-74
2023/12/15 05:01:09;;;;;;;;;;;9.40;99.90;;;;;;7339903;19;109921;-74
2023/12/15 05:03:37;;;;;;;;;;;9.40;99.90;;;;;;7335007;19;110576;-74
2023/12/15 05:06:04;;;;;;;;;;;9.40;99.90;;;;;;7336778;19;108901;-75
2023/12/15 05:08:31;;;;;;;;;;;9.40;99.90;;;;;;7340194;19;108577;-74
2023/12/15 05:10:59;;;;;;;;;;;9.40;99.90;;;;;;7336819;19;109187;-75
2023/12/15 05:13:26;;;;;;;;;;;9.40;99.90;;;;;;7337256;19;108393;-74
2023/12/15 05:15:53;;;;;;;;;;;9.40;99.90;;;;;;7338270;19;108778;-74
2023/12/15 05:18:20;;;;;;;;;;;9.40;99.90;;;;;;7336959;19;109844;-74
2023/12/15 05:20:48;;;;;;;;;;;9.40;99.90;;;;;;7335759;19;109324;-74
2023/12/15 05:23:15;;;;;;;;;;;9.40;99.90;;;;;;7336907;19;108969;-74
2023/12/15 05:25:42;;;;;;;;;;;9.40;99.90;;;;;;7336591;19;110141;-74
2023/12/15 05:28:09;;;;;;;;;;;9.40;99.90;;;;;;7343825;19;110946;-74
2023/12/15 05:30:36;;;;;;;;;;;9.40;99.90;;;;;;7333692;19;109157;-74
2023/12/15 05:33:03;;;;;;;;;;;9.50;99.90;;;;;;7332805;19;108873;-74
2023/12/15 05:35:31;;;;;;;;;;;9.40;99.90;;;;;;7334407;19;108688;-75
2023/12/15 05:37:58;;;;;;;;;;;9.40;99.90;;;;;;7334948;19;110050;-74
2023/12/15 05:40:25;;;;;;;;;;;9.40;99.90;;;;;;7333287;19;108724;-75
2023/12/15 05:42:52;;;;;;;;;;;9.40;99.90;;;;;;7334371;19;109073;-75
2023/12/15 05:45:19;;;;;;;;;;;9.40;99.90;;;;;;7336646;19;110036;-74
2023/12/15 05:47:47;;;;;;;;;;;9.50;99.90;;;;;;7339487;19;108832;-74
2023/12/15 05:50:14;;;;;;;;;;;9.50;99.90;;;;;;7342399;19;109164;-75
2023/12/15 05:52:42;;;;;;;;;;;9.50;99.90;;;;;;7341805;19;110295;-73
2023/12/15 05:55:09;;;;;;;;;;;9.50;99.90;;;;;;7345179;19;109092;-75
2023/12/15 05:57:36;;;;;;;;;;;9.50;99.90;;;;;;7339328;19;111428;-74
2023/12/15 06:00:04;;;;;;;;;;;9.50;99.90;;;;;;7339108;19;109816;-74
2023/12/15 06:02:31;;;;;;;;;;;9.50;99.90;;;;;;7336949;19;110558;-74
2023/12/15 06:04:59;;;;;;;;;;;9.50;99.90;;;;;;7334597;19;110323;-75
2023/12/15 06:07:26;;;;;;;;;;;9.40;99.90;;;;;;7336335;19;108552;-75
2023/12/15 06:09:53;;;;;;;;;;;9.50;99.90;;;;;;7333714;19;109184;-75
2023/12/15 06:12:20;;;;;;;;;;;9.50;99.90;;;;;;7340888;19;109634;-74
2023/12/15 06:14:47;;;;;;;;;;;9.50;99.90;;;;;;7333288;19;108685;-75
2023/12/15 06:17:15;;;;;;;;;;;9.50;99.90;;;;;;7336408;19;110051;-75
2023/12/15 06:19:42;;;;;;;;;;;9.50;99.90;;;;;;7334480;19;110065;-75
2023/12/15 06:22:09;;;;;;;;;;;9.50;99.90;;;;;;7338329;19;109114;-74
2023/12/15 06:24:40;;;;;;;;;;;9.50;99.90;;;;;;7336077;19;109937;-75
2023/12/15 06:27:07;;;;;;;;;;;9.50;99.90;;;;;;7337805;19;108605;-75
2023/12/15 06:29:34;;;;;;;;;;;9.50;99.90;;;;;;7334205;19;108912;-74
2023/12/15 06:32:01;;;;;;;;;;;9.50;99.90;;;;;;7332871;19;110890;-74
2023/12/15 06:34:28;;;;;;;;;;;9.50;99.90;;;;;;7340650;19;110049;-75
2023/12/15 06:36:56;;;;;;;;;;;9.50;99.90;;;;;;7335743;19;109839;-74
2023/12/15 06:39:23;;;;;;;;;;;9.50;99.90;;;;;;7334678;19;109008;-74
2023/12/15 06:41:50;;;;;;;;;;;9.50;99.90;;;;;;7335567;19;108524;-75
2023/12/15 06:44:20;;;;;;;;;;;9.50;99.90;;;;;;7332106;19;109849;-75
2023/12/15 06:46:47;;;;;;;;;;;9.50;99.90;;;;;;7334119;19;110337;-75
2023/12/15 06:49:17;;;;;;;;;;;9.50;99.90;;;;;;7328248;19;110556;-75
2023/12/15 06:51:46;;;;;;;;;;;9.50;99.90;;;;;;7331711;19;109924;-76
2023/12/15 06:54:13;;;;;;;;;;;9.40;99.90;;;;;;7332948;19;109573;-75
2023/12/15 06:56:41;;;;;;;;;;;9.40;99.90;;;;;;7337948;19;108633;-76
2023/12/15 06:59:08;;;;;;;;;;;9.40;99.90;;;;;;7332147;19;108690;-75
2023/12/15 07:01:35;;;;;;;;;;;9.40;99.90;;;;;;7331388;19;108884;-75
2023/12/15 07:04:02;;;;;;;;;;;9.40;99.90;;;;;;7334037;19;109606;-75
2023/12/15 07:06:34;;;;;;;;;;;9.40;99.90;;;;;;7331975;19;109242;-76
2023/12/15 07:09:05;;;;;;;;;;;9.40;99.90;;;;;;7334238;19;119943;-76
2023/12/15 07:11:32;;;;;;;;;;;9.40;99.90;;;;;;7332723;19;109838;-75
2023/12/15 07:13:59;;;;;;;;;;;9.40;99.90;;;;;;7333605;19;108611;-77
2023/12/15 07:16:26;;;;;;;;;;;9.30;99.90;;;;;;7336685;19;108764;-76
2023/12/15 07:18:53;;;;;;;;;;;9.30;99.90;;;;;;7334328;19;109978;-78
2023/12/15 07:21:21;;;;;;;;;;;9.30;99.90;;;;;;7332915;19;108855;-78
2023/12/15 07:23:48;;;;;;;;;;;9.30;99.90;;;;;;7334231;19;110610;-76
2023/12/15 07:26:17;;;;;;;;;;;9.30;99.90;;;;;;7334542;19;108590;-75
2023/12/15 07:28:44;;;;;;;;;;;9.30;99.90;;;;;;7333119;19;110842;-75
2023/12/15 07:31:11;;;;;;;;;;;9.30;99.90;;;;;;7332888;19;109524;-76
2023/12/15 07:33:38;;;;;;;;;;;9.30;99.90;;;;;;7333026;19;110562;-76
2023/12/15 07:36:06;;;;;;;;;;;9.20;99.90;;;;;;7335459;19;108918;-75
2023/12/15 07:38:33;;;;;;;;;;;9.20;99.90;;;;;;7339872;19;110151;-75
2023/12/15 07:41:00;;;;;;;;;;;9.20;99.90;;;;;;7334104;19;109310;-75
2023/12/15 07:43:28;;;;;;;;;;;9.20;99.90;;;;;;7332278;19;109372;-75
2023/12/15 07:45:55;;;;;;;;;;;9.20;99.90;;;;;;7332636;19;108781;-75
2023/12/15 07:48:22;;;;;;;;;;;9.20;99.90;;;;;;7330860;19;111574;-75
2023/12/15 07:50:50;;;;;;;;;;;9.10;99.90;;;;;;7331477;19;109423;-75
2023/12/15 07:53:17;;;;;;;;;;;9.20;99.90;;;;;;7332583;19;109276;-75
2023/12/15 07:55:44;;;;;;;;;;;9.20;99.90;;;;;;7333932;19;108742;-75
2023/12/15 07:58:11;;;;;;;;;;;9.20;99.90;;;;;;7332743;19;110316;-76
2023/12/15 08:00:39;;;;;;;;;;;9.20;99.90;;;;;;7339358;19;108731;-74
2023/12/15 08:03:06;;;;;;;;;;;9.20;99.90;;;;;;7330697;19;111429;-75
2023/12/15 08:05:38;;;;;;;;;;;9.20;99.90;;;;;;7331694;19;110562;-74
2023/12/15 08:08:05;;;;;;;;;;;9.20;99.90;;;;;;7333562;19;108567;-75
2023/12/15 08:10:34;;;;;;;;;;;9.10;99.90;;;;;;7331002;19;109934;-75
2023/12/15 08:13:01;;;;;;;;;;;9.20;99.90;;;;;;7333720;19;108793;-75
2023/12/15 08:15:29;;;;;;;;;;;9.20;99.90;;;;;;7332490;19;108696;-75
2023/12/15 08:17:56;;;;;;;;;;;9.20;99.90;;;;;;7330705;19;109167;-75
2023/12/15 08:20:24;;;;;;;;;;;9.20;99.90;;;;;;7331218;19;108959;-74
2023/12/15 08:22:51;;;;;;;;;;;9.20;99.90;;;;;;7343384;19;109625;-75
2023/12/15 08:25:18;;;;;;;;;;;9.20;99.90;;;;;;7337956;19;109203;-75
2023/12/15 08:27:45;;;;;;;;;;;9.20;99.90;;;;;;7339558;19;108728;-75
2023/12/15 08:30:13;;;;;;;;;;;9.20;99.90;;;;;;7336397;19;109253;-75
2023/12/15 08:32:40;;;;;;;;;;;9.20;99.90;;;;;;7340270;19;109134;-75
2023/12/15 08:35:07;;;;;;;;;;;9.20;99.90;;;;;;7339145;19;109417;-75
2023/12/15 08:37:35;;;;;;;;;;;9.20;99.90;;;;;;7337955;19;109047;-75
2023/12/15 08:40:02;;;;;;;;;;;9.20;99.90;;;;;;7337023;19;108942;-75
2023/12/15 08:42:30;;;;;;;;;;;9.20;99.90;;;;;;7338518;19;108429;-75
2023/12/15 08:44:57;;;;;;;;;;;9.20;99.90;;;;;;7346498;19;114493;-75
2023/12/15 08:47:24;;;;;;;;;;;9.20;99.90;;;;;;7336160;19;110151;-75
2023/12/15 08:49:51;;;;;;;;;;;9.30;99.90;;;;;;7339498;19;110662;-75
2023/12/15 08:52:18;;;;;;;;;;;9.30;99.90;;;;;;7339541;19;109099;-75
2023/12/15 08:54:46;;;;;;;;;;;9.30;99.90;;;;;;7340076;19;108791;-74
2023/12/15 08:57:13;;;;;;;;;;;9.30;99.90;;;;;;7334942;19;111212;-75
2023/12/15 08:59:40;;;;;;;;;;;9.30;99.90;;;;;;7338054;19;108858;-75
2023/12/15 09:02:08;;;;;;;;;;;9.40;99.90;;;;;;7336296;19;108610;-76
2023/12/15 09:04:36;;;;;;;;;;;9.40;99.90;;;;;;7337279;19;109625;-76
2023/12/15 09:07:14;;;;;;;;;;;9.40;99.90;;;;;;7343381;19;108772;-76
2023/12/15 09:09:41;;;;;;;;;;;9.40;99.90;;;;;;7336999;19;109089;-76
2023/12/15 09:12:10;;;;;;;;;;;9.50;99.90;;;;;;7339220;19;108858;-75
2023/12/15 09:14:38;;;;;;;;;;;9.50;99.90;;;;;;7338333;19;108613;-75
2023/12/15 09:17:11;;;;;;;;;;;9.40;99.90;;;;;;7337872;19;110030;-75
2023/12/15 09:22:22;;;;;;;;;;;9.50;99.90;;;;;;7373442;19;109586;-85
2023/12/15 09:24:51;;;;;;;;;;;9.50;99.90;;;;;;7362257;19;110276;-85
2023/12/15 09:27:19;;;;;;;;;;;9.50;99.90;;;;;;7349960;19;108778;-85
2023/12/15 09:29:46;;;;;;;;;;;9.60;99.90;;;;;;7345771;19;109257;-85
2023/12/15 09:32:13;;;;;;;;;;;9.60;99.90;;;;;;7338595;19;109117;-86
2023/12/15 09:34:40;;;;;;;;;;;9.60;99.90;;;;;;7342366;19;109510;-86
2023/12/15 09:37:08;;;;;;;;;;;9.60;99.90;;;;;;7340927;19;110229;-85
2023/12/15 09:39:35;;;;;;;;;;;9.70;99.90;;;;;;7341395;19;110318;-85
2023/12/15 09:42:02;;;;;;;;;;;9.70;99.90;;;;;;7340592;19;109608;-85
2023/12/15 09:44:29;;;;;;;;;;;9.70;99.90;;;;;;7340100;19;110602;-85
2023/12/15 09:46:58;;;;;;;;;;;9.70;99.90;;;;;;7340419;19;110659;-86
2023/12/15 09:49:25;;;;;;;;;;;9.70;99.90;;;;;;7340263;19;109157;-85
2023/12/15 09:51:53;;;;;;;;;;;9.70;99.90;;;;;;7333507;19;108579;-84
2023/12/15 09:54:20;;;;;;;;;;;9.80;99.90;;;;;;7334129;19;108560;-85
2023/12/15 09:56:47;;;;;;;;;;;9.80;99.90;;;;;;7333037;19;110846;-86
2023/12/15 09:59:14;;;;;;;;;;;9.90;99.90;;;;;;7333767;19;108730;-85
2023/12/15 10:01:42;;;;;;;;;;;9.90;99.90;;;;;;7334487;19;112365;-87
2023/12/15 10:04:09;;;;;;;;;;;9.90;99.90;;;;;;7333807;19;110777;-85
2023/12/15 10:06:36;;;;;;;;;;;9.90;99.90;;;;;;7334695;19;108822;-85
2023/12/15 10:09:11;;;;;;;;;;;10.00;99.90;;;;;;7337161;19;112426;-85
2023/12/15 10:22:42;;;;;;;;;;;10.10;99.90;;;;;;7332194;19;109149;-75
2023/12/15 10:25:21;;;;;;;;;;;10.10;99.90;;;;;;7334228;19;109492;-75
2023/12/15 10:27:49;;;;;;;;;;;10.10;99.90;;;;;;7334884;19;109101;-75
2023/12/15 10:30:17;;;;;;;;;;;10.20;99.90;;;;;;7333650;19;109182;-75
2023/12/15 10:32:45;;;;;;;;;;;10.20;99.90;;;;;;7335789;19;109265;-75
2023/12/15 10:35:13;;;;;;;;;;;10.20;99.90;;;;;;7338953;19;108917;-75
2023/12/15 10:37:42;;;;;;;;;;;10.30;99.90;;;;;;7336011;19;111698;-75
2023/12/15 10:40:10;;;;;;;;;;;10.30;99.90;;;;;;7331949;19;110757;-74
2023/12/15 10:42:39;;;;;;;;;;;10.30;99.90;;;;;;7332043;19;108599;-75
2023/12/15 10:45:07;;;;;;;;;;;10.30;99.90;;;;;;7332501;19;109083;-75
2023/12/15 10:47:34;;;;;;;;;;;10.40;99.90;;;;;;7334325;19;109026;-75
2023/12/15 10:50:02;;;;;;;;;;;10.30;99.90;;;;;;7335244;19;108655;-75
2023/12/15 10:52:35;;;;;;;;;;;10.40;99.90;;;;;;7332467;19;111266;-75
2023/12/15 10:55:03;;;;;;;;;;;10.40;99.90;;;;;;7332749;19;109498;-76
2023/12/15 10:57:33;;;;;;;;;;;10.40;99.90;;;;;;7338083;19;108913;-75
2023/12/15 11:00:03;;;;;;;;;;;10.40;99.90;;;;;;7338173;19;108337;-74
2023/12/15 11:02:31;;;;;;;;;;;10.50;99.90;;;;;;7342456;19;108991;-75
2023/12/15 11:04:59;;;;;;;;;;;10.50;99.90;;;;;;7342102;19;109244;-74
2023/12/15 11:07:27;;;;;;;;;;;10.50;99.90;;;;;;7341699;19;111243;-75
2023/12/15 11:09:55;;;;;;;;;;;10.50;99.90;;;;;;7344264;19;109160;-74
2023/12/15 11:12:29;;;;;;;;;;;10.50;99.90;;;;;;7336486;19;111350;-75
2023/12/15 11:14:58;;;;;;;;;;;10.50;99.90;;;;;;7336312;19;109568;-74
2023/12/15 11:17:26;;;;;;;;;;;10.50;99.90;;;;;;7332696;19;108817;-75
2023/12/15 11:20:03;;;;;;;;;;;10.50;99.90;;;;;;7338804;19;110206;-75
2023/12/15 11:22:39;;;;;;;;;;;10.60;99.90;;;;;;7333089;19;109099;-75
2023/12/15 11:25:08;;;;;;;;;;;10.60;99.90;;;;;;7333885;19;112948;-75
2023/12/15 11:27:55;;;;;;;;;;;10.50;99.90;;;;;;7333128;19;108884;-75
2023/12/15 11:30:29;;;;;;;;;;;10.50;99.90;;;;;;7332267;19;109284;-75
2023/12/15 11:32:57;;;;;;;;;;;10.60;99.90;;;;;;7336856;19;109836;-74
2023/12/15 11:35:30;;;;;;;;;;;10.60;99.90;;;;;;7331594;19;110925;-75
2023/12/15 11:37:58;;;;;;;;;;;10.60;99.90;;;;;;7335399;19;108595;-74
2023/12/15 11:40:29;;;;;;;;;;;10.60;99.90;;;;;;7337784;19;109275;-75
2023/12/15 11:42:56;;;;;;;;;;;10.60;99.90;;;;;;7334031;19;108841;-75
2023/12/15 11:45:29;;;;;;;;;;;10.60;99.90;;;;;;7332753;19;109128;-75
2023/12/15 11:47:56;;;;;;;;;;;10.60;99.90;;;;;;7333645;19;108720;-75
2023/12/15 11:50:23;;;;;;;;;;;10.60;99.90;;;;;;7331239;19;111446;-75
2023/12/15 11:52:51;;;;;;;;;;;10.60;99.90;;;;;;7331575;19;109220;-74
2023/12/15 11:55:19;;;;;;;;;;;10.60;99.90;;;;;;7335348;19;109456;-74
2023/12/15 11:57:50;;;;;;;;;;;10.60;99.90;;;;;;7339577;19;109041;-75
2023/12/15 12:00:19;;;;;;;;;;;10.70;99.90;;;;;;7337406;19;109102;-75
2023/12/15 12:02:48;;;;;;;;;;;10.70;99.90;;;;;;7346676;19;108774;-75
2023/12/15 12:05:15;;;;;;;;;;;10.70;99.90;;;;;;7337455;19;109139;-75
2023/12/15 12:07:42;;;;;;;;;;;10.70;99.90;;;;;;7341988;19;108995;-75
2023/12/15 12:10:10;;;;;;;;;;;10.80;99.90;;;;;;7338199;19;109119;-74
2023/12/15 12:12:37;;;;;;;;;;;10.80;99.90;;;;;;7338539;19;110155;-75
2023/12/15 12:15:07;;;;;;;;;;;10.80;99.90;;;;;;7341159;19;108482;-75
2023/12/15 12:17:34;;;;;;;;;;;10.80;99.90;;;;;;7339164;19;108776;-75
2023/12/15 12:20:04;;;;;;;;;;;10.80;99.90;;;;;;7337138;19;112723;-75
2023/12/15 12:22:36;;;;;;;;;;;10.90;99.90;;;;;;7338810;19;114213;-75
2023/12/15 12:25:04;;;;;;;;;;;10.90;99.90;;;;;;7344652;19;108365;-75
2023/12/15 12:27:34;;;;;;;;;;;10.90;99.90;;;;;;7337980;19;111015;-75
2023/12/15 12:30:02;;;;;;;;;;;10.90;99.90;;;;;;7340172;19;110032;-74
2023/12/15 12:32:30;;;;;;;;;;;10.90;99.90;;;;;;7336626;19;110400;-75
2023/12/15 12:34:57;;;;;;;;;;;10.90;99.90;;;;;;7337924;19;108943;-74
2023/12/15 12:37:24;;;;;;;;;;;10.90;99.90;;;;;;7336400;19;109258;-74
2023/12/15 12:39:51;;;;;;;;;;;10.90;99.90;;;;;;7338043;19;110376;-76
2023/12/15 12:42:18;;;;;;;;;;;10.90;99.90;;;;;;7337399;19;108322;-76
2023/12/15 12:44:46;;;;;;;;;;;10.90;99.90;;;;;;7338328;19;108731;-76
2023/12/15 12:47:13;;;;;;;;;;;10.90;99.90;;;;;;7341085;19;109475;-76
2023/12/15 12:49:41;;;;;;;;;;;10.90;99.90;;;;;;7335312;19;109173;-75
2023/12/15 12:52:18;;;;;;;;;;;10.90;99.90;;;;;;7335176;19;111655;-75
2023/12/15 12:54:45;;;;;;;;;;;10.90;99.90;;;;;;7336328;19;108594;-75
2023/12/15 12:57:12;;;;;;;;;;;10.90;99.90;;;;;;7336387;19;110053;-74
2023/12/15 12:59:41;;;;;;;;;;;10.90;99.90;;;;;;7337317;19;110235;-75
2023/12/15 13:02:08;;;;;;;;;;;10.90;99.90;;;;;;7336506;19;108979;-75
2023/12/15 13:04:47;;;;;;;;;;;10.90;99.90;;;;;;7337842;19;109965;-75
2023/12/15 13:07:14;;;;;;;;;;;10.90;99.90;;;;;;7337071;19;108902;-75
2023/12/15 13:09:41;;;;;;;;;;;10.90;99.90;;;;;;7344456;19;109391;-75
2023/12/15 13:12:13;;;;;;;;;;;10.90;99.90;;;;;;7338138;19;109464;-75
2023/12/15 13:14:40;;;;;;;;;;;10.90;99.90;;;;;;7336987;19;108523;-75
2023/12/15 13:17:07;;;;;;;;;;;10.90;99.90;;;;;;7337392;19;109019;-75
2023/12/15 13:19:35;;;;;;;;;;;10.90;99.90;;;;;;7340994;19;109720;-74
2023/12/15 13:22:03;;;;;;;;;;;10.90;99.90;;;;;;7337955;19;109984;-75
2023/12/15 13:24:30;;;;;;;;;;;10.80;99.90;;;;;;7339336;19;109045;-78
2023/12/15 13:27:04;;;;;;;;;;;10.80;99.90;;;;;;7337879;19;109652;-77
2023/12/15 13:29:32;;;;;;;;;;;10.90;99.90;;;;;;7336542;19;110409;-78
2023/12/15 13:32:11;;;;;;;;;;;10.80;99.90;;;;;;7342682;19;109436;-76
2023/12/15 13:34:38;;;;;;;;;;;10.80;99.90;;;;;;7336095;19;108620;-77
2023/12/15 13:37:06;;;;;;;;;;;10.80;99.90;;;;;;7337727;19;109044;-75
2023/12/15 13:39:33;;;;;;;;;;;10.80;99.90;;;;;;7335843;19;109416;-76
2023/12/15 13:42:00;;;;;;;;;;;10.80;99.90;;;;;;7338347;19;110344;-75
2023/12/15 13:44:27;;;;;;;;;;;10.80;99.90;;;;;;7337138;19;109481;-75
2023/12/15 13:46:54;;;;;;;;;;;10.80;99.90;;;;;;7337084;19;109104;-75
2023/12/15 13:49:22;;;;;;;;;;;10.80;99.90;;;;;;7335203;19;108969;-76
2023/12/15 13:51:49;;;;;;;;;;;10.80;99.90;;;;;;7337864;19;108772;-75
2023/12/15 13:54:16;;;;;;;;;;;10.80;99.90;;;;;;7333942;19;108665;-75
2023/12/15 13:56:43;;;;;;;;;;;10.80;99.90;;;;;;7335272;19;109617;-75
2023/12/15 13:59:11;;;;;;;;;;;10.80;99.90;;;;;;7337520;19;110259;-75
2023/12/15 14:01:39;;;;;;;;;;;10.80;99.90;;;;;;7336128;19;109193;-75
2023/12/15 14:04:08;;;;;;;;;;;10.80;99.90;;;;;;7335610;19;108652;-75
2023/12/15 14:06:35;;;;;;;;;;;10.80;99.90;;;;;;7334811;19;109134;-75
2023/12/15 14:09:02;;;;;;;;;;;10.80;99.90;;;;;;7336779;19;110700;-75
2023/12/15 14:11:30;;;;;;;;;;;10.80;99.90;;;;;;7334773;19;109052;-75
2023/12/15 14:13:57;;;;;;;;;;;10.70;99.90;;;;;;7338516;19;109091;-76
2023/12/15 14:16:24;;;;;;;;;;;10.70;99.90;;;;;;7333064;19;108417;-76
2023/12/15 14:19:09;;;;;;;;;;;10.70;99.90;;;;;;7334778;19;110721;-76
2023/12/15 14:21:37;;;;;;;;;;;10.70;99.90;;;;;;7334826;19;110698;-76
2023/12/15 14:24:06;;;;;;;;;;;10.70;99.90;;;;;;7336967;19;109083;-75
2023/12/15 14:26:33;;;;;;;;;;;10.70;99.90;;;;;;7335951;19;110106;-75
2023/12/15 14:29:03;;;;;;;;;;;10.70;99.90;;;;;;7335108;19;109111;-75
2023/12/15 14:31:30;;;;;;;;;;;10.70;99.90;;;;;;7336354;19;109217;-75
2023/12/15 14:33:58;;;;;;;;;;;10.70;99.90;;;;;;7338585;19;109341;-75